sensor_id;sensor_type;location;lat;lon;timestamp;P1;durP1;ratioP1;P2;durP2;ratioP2
17197;SDS011;8715;51.010;6.812;2022-10-10T00:00:21;303.83;;;290.50;;
17197;SDS011;8715;51.010;6.812;2022-10-10T00:02:47;325.10;;;310.85;;
17197;SDS011;8715;51.010;6.812;2022-10-10T00:05:13;311.45;;;297.17;;
17197;SDS011;8715;51.010;6.812;2022-10-10T00:07:38;312.40;;;298.23;;
17197;SDS011;8715;51.010;6.812;2022-10-10T00:10:03;304.38;;;290.45;;
17197;SDS011;8715;51.010;6.812;2022-10-10T00:12:29;320.00;;;305.92;;
17197;SDS011;8715;51.010;6.812;2022-10-10T00:14:54;308.20;;;294.50;;
17197;SDS011;8715;51.010;6.812;2022-10-10T00:17:19;305.70;;;292.27;;
17197;SDS011;8715;51.010;6.812;2022-10-10T00:19:45;316.60;;;302.55;;
17197;SDS011;8715;51.010;6.812;2022-10-10T00:22:10;302.63;;;289.05;;
17197;SDS011;8715;51.010;6.812;2022-10-10T00:24:35;303.13;;;289.63;;
17197;SDS011;8715;51.010;6.812;2022-10-10T00:27:01;302.83;;;289.27;;
17197;SDS011;8715;51.010;6.812;2022-10-10T00:29:26;321.47;;;307.07;;
17197;SDS011;8715;51.010;6.812;2022-10-10T00:31:51;317.27;;;303.07;;
17197;SDS011;8715;51.010;6.812;2022-10-10T00:34:17;310.37;;;296.93;;
17197;SDS011;8715;51.010;6.812;2022-10-10T00:36:42;291.02;;;278.20;;
17197;SDS011;8715;51.010;6.812;2022-10-10T00:39:07;292.53;;;279.60;;
17197;SDS011;8715;51.010;6.812;2022-10-10T00:41:33;301.67;;;287.93;;
17197;SDS011;8715;51.010;6.812;2022-10-10T00:44:05;302.97;;;290.03;;
17197;SDS011;8715;51.010;6.812;2022-10-10T00:46:32;308.92;;;294.05;;
17197;SDS011;8715;51.010;6.812;2022-10-10T00:48:58;301.63;;;288.27;;
17197;SDS011;8715;51.010;6.812;2022-10-10T00:51:23;305.63;;;291.48;;
17197;SDS011;8715;51.010;6.812;2022-10-10T00:53:52;297.25;;;284.08;;
17197;SDS011;8715;51.010;6.812;2022-10-10T00:56:22;295.95;;;282.52;;
17197;SDS011;8715;51.010;6.812;2022-10-10T00:58:54;301.77;;;288.23;;
17197;SDS011;8715;51.010;6.812;2022-10-10T01:01:20;298.35;;;285.05;;
17197;SDS011;8715;51.010;6.812;2022-10-10T01:03:46;285.48;;;272.52;;
17197;SDS011;8715;51.010;6.812;2022-10-10T01:06:11;305.73;;;291.88;;
17197;SDS011;8715;51.010;6.812;2022-10-10T01:08:37;289.52;;;276.50;;
17197;SDS011;8715;51.010;6.812;2022-10-10T01:13:37;300.00;;;286.67;;
17197;SDS011;8715;51.010;6.812;2022-10-10T01:16:12;294.27;;;281.17;;
17197;SDS011;8715;51.010;6.812;2022-10-10T01:18:46;294.02;;;280.00;;
17197;SDS011;8715;51.010;6.812;2022-10-10T01:32:13;283.75;;;270.63;;
17197;SDS011;8715;51.010;6.812;2022-10-10T01:34:45;296.30;;;283.00;;
17197;SDS011;8715;51.010;6.812;2022-10-10T01:37:21;284.75;;;271.58;;
17197;SDS011;8715;51.010;6.812;2022-10-10T01:40:17;276.42;;;263.83;;
17197;SDS011;8715;51.010;6.812;2022-10-10T01:42:49;290.90;;;277.48;;
17197;SDS011;8715;51.010;6.812;2022-10-10T01:45:18;277.00;;;262.98;;
17197;SDS011;8715;51.010;6.812;2022-10-10T01:47:44;293.38;;;279.55;;
17197;SDS011;8715;51.010;6.812;2022-10-10T01:50:12;303.42;;;290.08;;
17197;SDS011;8715;51.010;6.812;2022-10-10T01:53:01;272.90;;;260.67;;
17197;SDS011;8715;51.010;6.812;2022-10-10T01:55:39;279.58;;;266.95;;
17197;SDS011;8715;51.010;6.812;2022-10-10T02:01:01;279.35;;;266.02;;
17197;SDS011;8715;51.010;6.812;2022-10-10T02:03:37;265.92;;;253.52;;
17197;SDS011;8715;51.010;6.812;2022-10-10T02:06:11;275.83;;;263.33;;
17197;SDS011;8715;51.010;6.812;2022-10-10T02:08:44;269.77;;;257.50;;
17197;SDS011;8715;51.010;6.812;2022-10-10T02:11:13;276.42;;;263.42;;
17197;SDS011;8715;51.010;6.812;2022-10-10T02:16:10;281.92;;;268.20;;
17197;SDS011;8715;51.010;6.812;2022-10-10T02:18:39;274.85;;;262.33;;
17197;SDS011;8715;51.010;6.812;2022-10-10T02:21:09;288.65;;;275.40;;
17197;SDS011;8715;51.010;6.812;2022-10-10T02:23:35;287.33;;;274.50;;
17197;SDS011;8715;51.010;6.812;2022-10-10T02:26:01;291.85;;;277.70;;
17197;SDS011;8715;51.010;6.812;2022-10-10T02:30:55;293.27;;;280.08;;
17197;SDS011;8715;51.010;6.812;2022-10-10T02:33:24;277.73;;;264.98;;
17197;SDS011;8715;51.010;6.812;2022-10-10T02:35:52;288.73;;;275.67;;
17197;SDS011;8715;51.010;6.812;2022-10-10T02:38:18;276.05;;;263.20;;
17197;SDS011;8715;51.010;6.812;2022-10-10T02:40:44;281.40;;;268.17;;
17197;SDS011;8715;51.010;6.812;2022-10-10T02:43:11;284.13;;;270.90;;
17197;SDS011;8715;51.010;6.812;2022-10-10T02:45:38;286.20;;;273.23;;
17197;SDS011;8715;51.010;6.812;2022-10-10T02:48:04;289.23;;;275.98;;
17197;SDS011;8715;51.010;6.812;2022-10-10T02:50:30;263.27;;;250.95;;
17197;SDS011;8715;51.010;6.812;2022-10-10T02:52:56;299.42;;;285.80;;
17197;SDS011;8715;51.010;6.812;2022-10-10T02:55:21;272.13;;;258.67;;
17197;SDS011;8715;51.010;6.812;2022-10-10T02:57:47;273.00;;;259.90;;
17197;SDS011;8715;51.010;6.812;2022-10-10T03:00:13;296.33;;;283.27;;
17197;SDS011;8715;51.010;6.812;2022-10-10T03:02:39;294.10;;;280.88;;
17197;SDS011;8715;51.010;6.812;2022-10-10T03:05:04;291.67;;;278.27;;
17197;SDS011;8715;51.010;6.812;2022-10-10T03:07:30;284.50;;;271.30;;
17197;SDS011;8715;51.010;6.812;2022-10-10T03:09:55;279.67;;;266.83;;
17197;SDS011;8715;51.010;6.812;2022-10-10T03:12:21;277.52;;;264.85;;
17197;SDS011;8715;51.010;6.812;2022-10-10T03:14:46;274.00;;;261.48;;
17197;SDS011;8715;51.010;6.812;2022-10-10T03:17:11;267.83;;;255.17;;
17197;SDS011;8715;51.010;6.812;2022-10-10T03:19:37;289.53;;;276.47;;
17197;SDS011;8715;51.010;6.812;2022-10-10T03:22:02;297.88;;;284.48;;
17197;SDS011;8715;51.010;6.812;2022-10-10T03:24:28;290.80;;;276.73;;
17197;SDS011;8715;51.010;6.812;2022-10-10T03:26:53;289.08;;;275.52;;
17197;SDS011;8715;51.010;6.812;2022-10-10T03:29:18;280.38;;;267.63;;
17197;SDS011;8715;51.010;6.812;2022-10-10T03:31:44;291.37;;;278.37;;
17197;SDS011;8715;51.010;6.812;2022-10-10T03:34:09;291.03;;;277.43;;
17197;SDS011;8715;51.010;6.812;2022-10-10T03:36:34;306.02;;;291.98;;
17197;SDS011;8715;51.010;6.812;2022-10-10T03:39:00;292.60;;;279.13;;
17197;SDS011;8715;51.010;6.812;2022-10-10T03:41:25;280.02;;;267.33;;
17197;SDS011;8715;51.010;6.812;2022-10-10T03:43:51;305.20;;;291.15;;
17197;SDS011;8715;51.010;6.812;2022-10-10T03:46:16;292.00;;;278.42;;
17197;SDS011;8715;51.010;6.812;2022-10-10T03:48:41;290.03;;;276.57;;
17197;SDS011;8715;51.010;6.812;2022-10-10T03:51:07;278.52;;;265.67;;
17197;SDS011;8715;51.010;6.812;2022-10-10T03:53:32;290.35;;;276.58;;
17197;SDS011;8715;51.010;6.812;2022-10-10T03:55:58;290.05;;;276.63;;
17197;SDS011;8715;51.010;6.812;2022-10-10T03:58:23;301.02;;;287.80;;
17197;SDS011;8715;51.010;6.812;2022-10-10T04:00:55;293.43;;;279.97;;
17197;SDS011;8715;51.010;6.812;2022-10-10T04:03:21;282.75;;;269.77;;
17197;SDS011;8715;51.010;6.812;2022-10-10T04:05:47;287.52;;;274.25;;
17197;SDS011;8715;51.010;6.812;2022-10-10T04:08:12;282.95;;;269.58;;
17197;SDS011;8715;51.010;6.812;2022-10-10T04:10:38;288.20;;;274.33;;
17197;SDS011;8715;51.010;6.812;2022-10-10T04:13:03;300.35;;;286.60;;
17197;SDS011;8715;51.010;6.812;2022-10-10T04:15:28;308.83;;;294.87;;
17197;SDS011;8715;51.010;6.812;2022-10-10T04:17:54;284.92;;;271.50;;
17197;SDS011;8715;51.010;6.812;2022-10-10T04:20:20;280.13;;;266.52;;
17197;SDS011;8715;51.010;6.812;2022-10-10T04:22:45;298.83;;;285.00;;
17197;SDS011;8715;51.010;6.812;2022-10-10T04:25:12;299.65;;;285.90;;
17197;SDS011;8715;51.010;6.812;2022-10-10T04:27:37;306.08;;;292.52;;
17197;SDS011;8715;51.010;6.812;2022-10-10T04:30:03;284.38;;;270.85;;
17197;SDS011;8715;51.010;6.812;2022-10-10T04:32:29;306.30;;;292.63;;
17197;SDS011;8715;51.010;6.812;2022-10-10T04:34:54;310.07;;;295.87;;
17197;SDS011;8715;51.010;6.812;2022-10-10T04:37:19;298.90;;;285.00;;
17197;SDS011;8715;51.010;6.812;2022-10-10T04:39:45;310.00;;;295.47;;
17197;SDS011;8715;51.010;6.812;2022-10-10T04:42:10;302.13;;;288.02;;
17197;SDS011;8715;51.010;6.812;2022-10-10T04:44:35;282.95;;;270.00;;
17197;SDS011;8715;51.010;6.812;2022-10-10T04:47:01;311.60;;;297.15;;
17197;SDS011;8715;51.010;6.812;2022-10-10T04:49:26;307.23;;;292.17;;
17197;SDS011;8715;51.010;6.812;2022-10-10T04:51:51;307.85;;;293.65;;
17197;SDS011;8715;51.010;6.812;2022-10-10T04:54:17;300.07;;;286.33;;
17197;SDS011;8715;51.010;6.812;2022-10-10T04:56:42;286.75;;;272.95;;
17197;SDS011;8715;51.010;6.812;2022-10-10T04:59:08;310.35;;;296.05;;
17197;SDS011;8715;51.010;6.812;2022-10-10T05:01:34;287.35;;;273.45;;
17197;SDS011;8715;51.010;6.812;2022-10-10T05:03:59;322.05;;;307.00;;
17197;SDS011;8715;51.010;6.812;2022-10-10T05:06:25;297.00;;;282.27;;
17197;SDS011;8715;51.010;6.812;2022-10-10T05:08:50;294.93;;;280.50;;
17197;SDS011;8715;51.010;6.812;2022-10-10T05:11:16;307.15;;;293.35;;
17197;SDS011;8715;51.010;6.812;2022-10-10T05:13:41;294.83;;;280.52;;
17197;SDS011;8715;51.010;6.812;2022-10-10T05:16:06;302.07;;;287.83;;
17197;SDS011;8715;51.010;6.812;2022-10-10T05:18:31;306.33;;;292.17;;
17197;SDS011;8715;51.010;6.812;2022-10-10T05:21:00;300.38;;;286.15;;
17197;SDS011;8715;51.010;6.812;2022-10-10T05:23:25;301.33;;;287.13;;
17197;SDS011;8715;51.010;6.812;2022-10-10T05:25:51;296.15;;;282.48;;
17197;SDS011;8715;51.010;6.812;2022-10-10T05:28:16;290.25;;;276.48;;
17197;SDS011;8715;51.010;6.812;2022-10-10T05:30:42;309.27;;;294.90;;
17197;SDS011;8715;51.010;6.812;2022-10-10T05:33:07;308.83;;;295.27;;
17197;SDS011;8715;51.010;6.812;2022-10-10T05:35:32;286.83;;;272.88;;
17197;SDS011;8715;51.010;6.812;2022-10-10T05:37:58;313.20;;;298.63;;
17197;SDS011;8715;51.010;6.812;2022-10-10T05:40:24;306.58;;;292.05;;
17197;SDS011;8715;51.010;6.812;2022-10-10T05:42:49;317.25;;;302.33;;
17197;SDS011;8715;51.010;6.812;2022-10-10T05:45:15;323.23;;;308.17;;
17197;SDS011;8715;51.010;6.812;2022-10-10T05:47:41;307.55;;;292.83;;
17197;SDS011;8715;51.010;6.812;2022-10-10T05:50:06;316.60;;;301.13;;
17197;SDS011;8715;51.010;6.812;2022-10-10T05:52:35;313.73;;;299.50;;
17197;SDS011;8715;51.010;6.812;2022-10-10T05:55:01;301.77;;;287.97;;
17197;SDS011;8715;51.010;6.812;2022-10-10T05:57:26;311.30;;;295.43;;
17197;SDS011;8715;51.010;6.812;2022-10-10T05:59:51;302.38;;;287.60;;
17197;SDS011;8715;51.010;6.812;2022-10-10T06:02:16;297.63;;;283.53;;
17197;SDS011;8715;51.010;6.812;2022-10-10T06:04:42;319.15;;;303.73;;
17197;SDS011;8715;51.010;6.812;2022-10-10T06:07:07;307.05;;;293.08;;
17197;SDS011;8715;51.010;6.812;2022-10-10T06:09:33;336.25;;;321.48;;
17197;SDS011;8715;51.010;6.812;2022-10-10T06:11:58;326.33;;;310.88;;
17197;SDS011;8715;51.010;6.812;2022-10-10T06:14:24;312.70;;;297.97;;
17197;SDS011;8715;51.010;6.812;2022-10-10T06:16:49;315.98;;;301.40;;
17197;SDS011;8715;51.010;6.812;2022-10-10T06:19:14;318.02;;;304.42;;
17197;SDS011;8715;51.010;6.812;2022-10-10T06:21:41;341.90;;;326.95;;
17197;SDS011;8715;51.010;6.812;2022-10-10T06:24:06;322.57;;;308.30;;
17197;SDS011;8715;51.010;6.812;2022-10-10T06:26:32;314.00;;;299.15;;
17197;SDS011;8715;51.010;6.812;2022-10-10T06:28:57;325.95;;;311.52;;
17197;SDS011;8715;51.010;6.812;2022-10-10T06:31:23;337.23;;;322.10;;
17197;SDS011;8715;51.010;6.812;2022-10-10T06:33:48;312.70;;;298.77;;
17197;SDS011;8715;51.010;6.812;2022-10-10T06:36:14;321.10;;;307.05;;
17197;SDS011;8715;51.010;6.812;2022-10-10T06:38:41;327.05;;;312.02;;
17197;SDS011;8715;51.010;6.812;2022-10-10T06:41:07;330.67;;;316.00;;
17197;SDS011;8715;51.010;6.812;2022-10-10T06:43:33;348.75;;;333.50;;
17197;SDS011;8715;51.010;6.812;2022-10-10T06:45:59;338.00;;;322.88;;
17197;SDS011;8715;51.010;6.812;2022-10-10T06:48:25;362.10;;;345.95;;
17197;SDS011;8715;51.010;6.812;2022-10-10T06:50:54;356.48;;;340.63;;
17197;SDS011;8715;51.010;6.812;2022-10-10T06:53:20;351.90;;;336.00;;
17197;SDS011;8715;51.010;6.812;2022-10-10T06:55:46;357.40;;;341.83;;
17197;SDS011;8715;51.010;6.812;2022-10-10T06:58:11;347.13;;;332.00;;
17197;SDS011;8715;51.010;6.812;2022-10-10T07:00:38;377.50;;;361.13;;
17197;SDS011;8715;51.010;6.812;2022-10-10T07:03:04;382.63;;;366.27;;
17197;SDS011;8715;51.010;6.812;2022-10-10T07:05:29;376.47;;;360.57;;
17197;SDS011;8715;51.010;6.812;2022-10-10T07:07:54;378.93;;;362.33;;
17197;SDS011;8715;51.010;6.812;2022-10-10T07:10:20;376.85;;;360.65;;
17197;SDS011;8715;51.010;6.812;2022-10-10T07:12:45;383.45;;;366.10;;
17197;SDS011;8715;51.010;6.812;2022-10-10T07:15:11;372.93;;;356.00;;
17197;SDS011;8715;51.010;6.812;2022-10-10T07:17:36;386.25;;;369.50;;
17197;SDS011;8715;51.010;6.812;2022-10-10T07:20:01;387.25;;;370.40;;
17197;SDS011;8715;51.010;6.812;2022-10-10T07:22:27;412.70;;;393.95;;
17197;SDS011;8715;51.010;6.812;2022-10-10T07:24:52;388.57;;;371.87;;
17197;SDS011;8715;51.010;6.812;2022-10-10T07:27:18;393.60;;;376.38;;
17197;SDS011;8715;51.010;6.812;2022-10-10T07:29:43;380.20;;;363.97;;
17197;SDS011;8715;51.010;6.812;2022-10-10T07:32:08;385.77;;;368.83;;
17197;SDS011;8715;51.010;6.812;2022-10-10T07:34:37;424.77;;;406.67;;
17197;SDS011;8715;51.010;6.812;2022-10-10T07:37:02;420.10;;;401.65;;
17197;SDS011;8715;51.010;6.812;2022-10-10T07:39:28;425.60;;;407.15;;
17197;SDS011;8715;51.010;6.812;2022-10-10T07:41:53;421.92;;;403.92;;
17197;SDS011;8715;51.010;6.812;2022-10-10T07:44:18;429.13;;;410.90;;
17197;SDS011;8715;51.010;6.812;2022-10-10T07:46:44;420.98;;;402.90;;
17197;SDS011;8715;51.010;6.812;2022-10-10T07:49:10;438.98;;;420.42;;
17197;SDS011;8715;51.010;6.812;2022-10-10T07:51:36;426.00;;;408.70;;
17197;SDS011;8715;51.010;6.812;2022-10-10T07:54:02;417.95;;;399.95;;
17197;SDS011;8715;51.010;6.812;2022-10-10T07:56:27;450.90;;;431.38;;
17197;SDS011;8715;51.010;6.812;2022-10-10T07:58:53;448.45;;;429.77;;
17197;SDS011;8715;51.010;6.812;2022-10-10T08:01:18;449.93;;;431.30;;
17197;SDS011;8715;51.010;6.812;2022-10-10T08:03:44;449.80;;;430.85;;
17197;SDS011;8715;51.010;6.812;2022-10-10T08:06:11;455.98;;;436.83;;
17197;SDS011;8715;51.010;6.812;2022-10-10T08:08:37;452.73;;;434.23;;
17197;SDS011;8715;51.010;6.812;2022-10-10T08:11:04;472.80;;;453.35;;
17197;SDS011;8715;51.010;6.812;2022-10-10T08:13:30;445.02;;;426.27;;
17197;SDS011;8715;51.010;6.812;2022-10-10T08:15:55;443.65;;;425.23;;
17197;SDS011;8715;51.010;6.812;2022-10-10T08:18:20;458.80;;;439.92;;
17197;SDS011;8715;51.010;6.812;2022-10-10T08:20:46;457.33;;;438.75;;
17197;SDS011;8715;51.010;6.812;2022-10-10T08:23:11;471.85;;;452.20;;
17197;SDS011;8715;51.010;6.812;2022-10-10T08:25:37;456.43;;;437.20;;
17197;SDS011;8715;51.010;6.812;2022-10-10T08:28:02;473.35;;;452.77;;
17197;SDS011;8715;51.010;6.812;2022-10-10T08:30:28;485.40;;;465.63;;
17197;SDS011;8715;51.010;6.812;2022-10-10T08:32:53;473.20;;;453.50;;
17197;SDS011;8715;51.010;6.812;2022-10-10T08:35:19;482.73;;;462.50;;
17197;SDS011;8715;51.010;6.812;2022-10-10T08:37:44;492.77;;;472.95;;
17197;SDS011;8715;51.010;6.812;2022-10-10T08:40:12;459.08;;;439.40;;
17197;SDS011;8715;51.010;6.812;2022-10-10T08:42:39;465.40;;;445.90;;
17197;SDS011;8715;51.010;6.812;2022-10-10T08:45:09;473.55;;;453.38;;
17197;SDS011;8715;51.010;6.812;2022-10-10T08:50:19;475.50;;;456.10;;
17197;SDS011;8715;51.010;6.812;2022-10-10T08:52:53;495.50;;;474.17;;
17197;SDS011;8715;51.010;6.812;2022-10-10T08:55:31;515.40;;;494.48;;
17197;SDS011;8715;51.010;6.812;2022-10-10T09:00:47;493.02;;;472.65;;
17197;SDS011;8715;51.010;6.812;2022-10-10T09:03:29;504.58;;;484.05;;
17197;SDS011;8715;51.010;6.812;2022-10-10T09:08:58;502.50;;;481.85;;
17197;SDS011;8715;51.010;6.812;2022-10-10T09:17:13;514.40;;;492.83;;
17197;SDS011;8715;51.010;6.812;2022-10-10T09:22:24;525.42;;;503.38;;
17197;SDS011;8715;51.010;6.812;2022-10-10T09:24:52;532.78;;;509.50;;
17197;SDS011;8715;51.010;6.812;2022-10-10T09:27:25;535.25;;;513.67;;
17197;SDS011;8715;51.010;6.812;2022-10-10T09:30:04;534.35;;;511.55;;
17197;SDS011;8715;51.010;6.812;2022-10-10T09:32:42;551.50;;;529.17;;
17197;SDS011;8715;51.010;6.812;2022-10-10T09:35:18;539.75;;;517.67;;
17197;SDS011;8715;51.010;6.812;2022-10-10T09:37:44;558.50;;;535.80;;
17197;SDS011;8715;51.010;6.812;2022-10-10T09:42:54;563.53;;;540.28;;
17197;SDS011;8715;51.010;6.812;2022-10-10T09:45:24;574.40;;;550.53;;
17197;SDS011;8715;51.010;6.812;2022-10-10T09:47:53;564.63;;;541.10;;
17197;SDS011;8715;51.010;6.812;2022-10-10T09:50:19;567.85;;;543.45;;
17197;SDS011;8715;51.010;6.812;2022-10-10T09:52:45;561.60;;;538.40;;
17197;SDS011;8715;51.010;6.812;2022-10-10T09:55:20;565.08;;;541.05;;
17197;SDS011;8715;51.010;6.812;2022-10-10T09:57:47;564.15;;;540.88;;
17197;SDS011;8715;51.010;6.812;2022-10-10T10:02:47;578.90;;;554.47;;
17197;SDS011;8715;51.010;6.812;2022-10-10T10:07:45;564.45;;;541.47;;
17197;SDS011;8715;51.010;6.812;2022-10-10T10:10:22;574.90;;;551.47;;
17197;SDS011;8715;51.010;6.812;2022-10-10T10:12:49;579.55;;;555.17;;
17197;SDS011;8715;51.010;6.812;2022-10-10T10:18:17;578.22;;;554.75;;
17197;SDS011;8715;51.010;6.812;2022-10-10T10:20:47;585.95;;;560.90;;
17197;SDS011;8715;51.010;6.812;2022-10-10T10:23:24;589.90;;;565.13;;
17197;SDS011;8715;51.010;6.812;2022-10-10T10:25:56;576.28;;;552.65;;
17197;SDS011;8715;51.010;6.812;2022-10-10T10:28:22;583.00;;;559.67;;
17197;SDS011;8715;51.010;6.812;2022-10-10T10:30:48;588.53;;;563.85;;
17197;SDS011;8715;51.010;6.812;2022-10-10T10:33:17;593.15;;;568.45;;
17197;SDS011;8715;51.010;6.812;2022-10-10T10:38:49;587.22;;;563.10;;
17197;SDS011;8715;51.010;6.812;2022-10-10T10:41:37;589.28;;;564.38;;
17197;SDS011;8715;51.010;6.812;2022-10-10T10:44:29;600.45;;;575.78;;
17197;SDS011;8715;51.010;6.812;2022-10-10T10:47:07;601.13;;;575.95;;
17197;SDS011;8715;51.010;6.812;2022-10-10T10:49:44;600.13;;;575.95;;
17197;SDS011;8715;51.010;6.812;2022-10-10T10:52:42;604.40;;;578.45;;
17197;SDS011;8715;51.010;6.812;2022-10-10T10:55:26;599.63;;;574.70;;
17197;SDS011;8715;51.010;6.812;2022-10-10T11:00:59;623.17;;;597.08;;
17197;SDS011;8715;51.010;6.812;2022-10-10T11:03:33;611.78;;;585.78;;
17197;SDS011;8715;51.010;6.812;2022-10-10T11:11:35;611.28;;;585.80;;
17197;SDS011;8715;51.010;6.812;2022-10-10T11:14:19;615.45;;;589.60;;
17197;SDS011;8715;51.010;6.812;2022-10-10T11:22:51;624.90;;;598.92;;
17197;SDS011;8715;51.010;6.812;2022-10-10T11:25:42;616.30;;;590.17;;
17197;SDS011;8715;51.010;6.812;2022-10-10T11:30:47;637.43;;;610.63;;
17197;SDS011;8715;51.010;6.812;2022-10-10T11:35:54;622.17;;;595.65;;
17197;SDS011;8715;51.010;6.812;2022-10-10T11:38:26;612.42;;;586.80;;
17197;SDS011;8715;51.010;6.812;2022-10-10T11:43:38;640.70;;;613.72;;
17197;SDS011;8715;51.010;6.812;2022-10-10T11:49:06;619.25;;;593.13;;
17197;SDS011;8715;51.010;6.812;2022-10-10T11:57:54;629.17;;;602.13;;
17197;SDS011;8715;51.010;6.812;2022-10-10T12:00:05;635.45;;;608.67;;
17197;SDS011;8715;51.010;6.812;2022-10-10T12:02:35;628.22;;;601.92;;
17197;SDS011;8715;51.010;6.812;2022-10-10T12:05:02;634.92;;;608.30;;
17197;SDS011;8715;51.010;6.812;2022-10-10T12:10:05;623.40;;;596.88;;
17197;SDS011;8715;51.010;6.812;2022-10-10T12:12:37;635.20;;;608.28;;
17197;SDS011;8715;51.010;6.812;2022-10-10T12:15:05;628.90;;;601.88;;
17197;SDS011;8715;51.010;6.812;2022-10-10T12:17:35;641.20;;;613.65;;
17197;SDS011;8715;51.010;6.812;2022-10-10T12:22:40;632.40;;;604.00;;
17197;SDS011;8715;51.010;6.812;2022-10-10T12:25:18;629.72;;;602.85;;
17197;SDS011;8715;51.010;6.812;2022-10-10T12:28:24;633.38;;;606.25;;
17197;SDS011;8715;51.010;6.812;2022-10-10T12:38:40;624.42;;;597.50;;
17197;SDS011;8715;51.010;6.812;2022-10-10T12:46:38;621.38;;;595.30;;
17197;SDS011;8715;51.010;6.812;2022-10-10T12:49:23;625.58;;;598.88;;
17197;SDS011;8715;51.010;6.812;2022-10-10T12:54:23;632.75;;;606.00;;
17197;SDS011;8715;51.010;6.812;2022-10-10T12:56:58;639.50;;;612.35;;
17197;SDS011;8715;51.010;6.812;2022-10-10T12:59:30;620.05;;;593.08;;
17197;SDS011;8715;51.010;6.812;2022-10-10T13:02:01;629.22;;;602.20;;
17197;SDS011;8715;51.010;6.812;2022-10-10T13:04:28;625.70;;;598.65;;
17197;SDS011;8715;51.010;6.812;2022-10-10T13:06:55;638.75;;;610.85;;
17197;SDS011;8715;51.010;6.812;2022-10-10T13:09:23;628.70;;;602.45;;
17197;SDS011;8715;51.010;6.812;2022-10-10T13:14:20;644.17;;;616.78;;
17197;SDS011;8715;51.010;6.812;2022-10-10T13:16:46;638.50;;;610.83;;
17197;SDS011;8715;51.010;6.812;2022-10-10T13:19:16;638.87;;;611.63;;
17197;SDS011;8715;51.010;6.812;2022-10-10T13:21:43;637.80;;;611.08;;
17197;SDS011;8715;51.010;6.812;2022-10-10T13:24:16;631.63;;;604.55;;
17197;SDS011;8715;51.010;6.812;2022-10-10T13:26:44;643.70;;;615.90;;
17197;SDS011;8715;51.010;6.812;2022-10-10T13:29:17;632.13;;;605.35;;
17197;SDS011;8715;51.010;6.812;2022-10-10T13:31:46;630.35;;;603.20;;
17197;SDS011;8715;51.010;6.812;2022-10-10T13:34:13;626.15;;;599.85;;
17197;SDS011;8715;51.010;6.812;2022-10-10T13:36:41;632.78;;;605.80;;
17197;SDS011;8715;51.010;6.812;2022-10-10T13:39:09;631.70;;;604.20;;
17197;SDS011;8715;51.010;6.812;2022-10-10T13:41:39;623.67;;;596.70;;
17197;SDS011;8715;51.010;6.812;2022-10-10T13:44:10;634.78;;;607.40;;
17197;SDS011;8715;51.010;6.812;2022-10-10T13:46:37;620.47;;;593.58;;
17197;SDS011;8715;51.010;6.812;2022-10-10T13:49:11;623.77;;;597.17;;
17197;SDS011;8715;51.010;6.812;2022-10-10T13:51:43;634.97;;;607.20;;
17197;SDS011;8715;51.010;6.812;2022-10-10T13:57:26;647.97;;;619.30;;
17197;SDS011;8715;51.010;6.812;2022-10-10T13:59:59;649.50;;;621.58;;
17197;SDS011;8715;51.010;6.812;2022-10-10T14:02:32;646.70;;;619.08;;
17197;SDS011;8715;51.010;6.812;2022-10-10T14:05:03;630.28;;;603.53;;
17197;SDS011;8715;51.010;6.812;2022-10-10T14:07:32;641.17;;;613.72;;
17197;SDS011;8715;51.010;6.812;2022-10-10T14:09:59;634.92;;;607.28;;
17197;SDS011;8715;51.010;6.812;2022-10-10T14:12:27;615.75;;;589.92;;
17197;SDS011;8715;51.010;6.812;2022-10-10T14:14:58;642.70;;;615.45;;
17197;SDS011;8715;51.010;6.812;2022-10-10T14:17:24;619.30;;;592.20;;
17197;SDS011;8715;51.010;6.812;2022-10-10T14:19:50;627.00;;;600.28;;
17197;SDS011;8715;51.010;6.812;2022-10-10T14:22:16;621.38;;;595.40;;
17197;SDS011;8715;51.010;6.812;2022-10-10T14:24:41;617.97;;;591.47;;
17197;SDS011;8715;51.010;6.812;2022-10-10T14:32:14;645.63;;;618.55;;
17197;SDS011;8715;51.010;6.812;2022-10-10T14:34:40;614.75;;;588.78;;
17197;SDS011;8715;51.010;6.812;2022-10-10T14:37:08;619.28;;;592.45;;
17197;SDS011;8715;51.010;6.812;2022-10-10T14:39:38;620.90;;;594.75;;
17197;SDS011;8715;51.010;6.812;2022-10-10T14:42:04;612.70;;;586.80;;
17197;SDS011;8715;51.010;6.812;2022-10-10T14:44:33;606.67;;;581.53;;
17197;SDS011;8715;51.010;6.812;2022-10-10T14:46:59;611.70;;;585.17;;
17197;SDS011;8715;51.010;6.812;2022-10-10T14:49:24;613.53;;;587.80;;
17197;SDS011;8715;51.010;6.812;2022-10-10T14:51:49;622.50;;;596.03;;
17197;SDS011;8715;51.010;6.812;2022-10-10T14:54:14;610.47;;;584.42;;
17197;SDS011;8715;51.010;6.812;2022-10-10T14:56:41;612.97;;;586.58;;
17197;SDS011;8715;51.010;6.812;2022-10-10T14:59:16;646.75;;;619.17;;
17197;SDS011;8715;51.010;6.812;2022-10-10T15:01:44;602.58;;;577.33;;
17197;SDS011;8715;51.010;6.812;2022-10-10T15:04:10;613.15;;;587.25;;
17197;SDS011;8715;51.010;6.812;2022-10-10T15:06:35;590.00;;;565.10;;
17197;SDS011;8715;51.010;6.812;2022-10-10T15:09:00;612.23;;;585.90;;
17197;SDS011;8715;51.010;6.812;2022-10-10T15:11:26;599.37;;;574.07;;
17197;SDS011;8715;51.010;6.812;2022-10-10T15:13:51;598.00;;;572.33;;
17197;SDS011;8715;51.010;6.812;2022-10-10T15:16:16;598.40;;;573.13;;
17197;SDS011;8715;51.010;6.812;2022-10-10T15:18:42;601.92;;;575.72;;
17197;SDS011;8715;51.010;6.812;2022-10-10T15:21:10;601.83;;;576.30;;
17197;SDS011;8715;51.010;6.812;2022-10-10T15:23:36;590.65;;;565.35;;
17197;SDS011;8715;51.010;6.812;2022-10-10T15:26:01;578.42;;;554.35;;
17197;SDS011;8715;51.010;6.812;2022-10-10T15:28:26;592.70;;;567.00;;
17197;SDS011;8715;51.010;6.812;2022-10-10T15:30:52;591.43;;;565.60;;
17197;SDS011;8715;51.010;6.812;2022-10-10T15:33:18;586.85;;;561.70;;
17197;SDS011;8715;51.010;6.812;2022-10-10T15:35:44;579.28;;;554.95;;
17197;SDS011;8715;51.010;6.812;2022-10-10T15:38:09;578.83;;;553.90;;
17197;SDS011;8715;51.010;6.812;2022-10-10T15:40:35;579.97;;;554.85;;
17197;SDS011;8715;51.010;6.812;2022-10-10T15:43:00;573.65;;;549.38;;
17197;SDS011;8715;51.010;6.812;2022-10-10T15:45:25;581.30;;;555.97;;
17197;SDS011;8715;51.010;6.812;2022-10-10T15:47:51;581.70;;;556.78;;
17197;SDS011;8715;51.010;6.812;2022-10-10T15:50:16;573.60;;;549.50;;
17197;SDS011;8715;51.010;6.812;2022-10-10T15:52:42;570.10;;;545.63;;
17197;SDS011;8715;51.010;6.812;2022-10-10T15:55:07;583.08;;;558.47;;
17197;SDS011;8715;51.010;6.812;2022-10-10T15:57:33;555.38;;;531.70;;
17197;SDS011;8715;51.010;6.812;2022-10-10T15:59:58;558.83;;;534.83;;
17197;SDS011;8715;51.010;6.812;2022-10-10T16:02:24;566.85;;;542.55;;
17197;SDS011;8715;51.010;6.812;2022-10-10T16:04:49;560.80;;;537.00;;
17197;SDS011;8715;51.010;6.812;2022-10-10T16:07:14;569.88;;;546.00;;